createdAt,value
2023-05-05T00:00:14.092Z,100002.25
2023-05-05T00:02:44.883Z,99970.09
2023-05-05T00:05:15.419Z,100003.72
2023-05-05T00:07:45.957Z,100002.41
2023-05-05T00:10:16.481Z,99986.69
2023-05-05T00:12:48.925Z,100002.25
2023-05-05T00:15:19.897Z,99995.75
2023-05-05T00:17:50.320Z,99995.28
2023-05-05T00:20:20.890Z,99989.78
2023-05-05T00:22:51.487Z,100001.88
2023-05-05T00:25:21.872Z,99997.59
2023-05-05T00:27:53.969Z,99993.50
2023-05-05T00:30:25.080Z,99991.00
2023-05-05T00:32:56.284Z,99992.78
2023-05-05T00:35:27.766Z,99996.34
2023-05-05T00:37:58.599Z,99990.59
2023-05-05T00:40:29.188Z,99984.81
2023-05-05T00:43:01.893Z,99982.28
2023-05-05T00:45:32.935Z,99990.06
2023-05-05T00:48:04.092Z,99986.44
2023-05-05T00:50:34.755Z,99996.22
2023-05-05T00:53:06.225Z,99983.34
2023-05-05T00:55:37.411Z,99985.34
2023-05-05T00:58:09.401Z,99972.34
2023-05-05T01:00:39.906Z,99981.94
2023-05-05T01:03:10.666Z,99972.00
2023-05-05T01:05:58.554Z,99982.00
2023-05-05T01:08:41.724Z,99936.13
2023-05-05T01:26:03.411Z,99961.16
2023-05-05T01:28:56.053Z,99972.34
2023-05-05T01:31:45.382Z,99970.19
2023-05-05T01:34:19.410Z,99953.88
2023-05-05T01:36:58.058Z,99870.34
2023-05-05T01:39:34.172Z,99934.38
2023-05-05T01:42:08.805Z,99937.81
2023-05-05T01:44:40.511Z,99908.25
2023-05-05T01:47:13.913Z,99953.28
2023-05-05T01:49:47.449Z,99943.31
2023-05-05T01:52:19.138Z,99941.75
2023-05-05T01:54:50.709Z,99927.91
2023-05-05T01:57:22.822Z,99938.53
2023-05-05T01:59:55.697Z,99930.25
2023-05-05T02:02:31.041Z,99953.72
2023-05-05T02:05:02.860Z,99945.81
2023-05-05T02:07:35.992Z,99944.09
2023-05-05T02:10:07.616Z,99946.56
2023-05-05T02:12:40.378Z,99958.81
2023-05-05T02:15:12.987Z,99950.84
2023-05-05T02:17:47.292Z,99951.06
2023-05-05T02:20:18.986Z,99942.69
2023-05-05T02:22:49.612Z,99946.00
2023-05-05T02:25:20.562Z,99947.81
2023-05-05T02:27:53.561Z,99939.75
2023-05-05T02:30:25.169Z,99933.66
2023-05-05T02:33:02.824Z,99928.97
2023-05-05T02:35:38.325Z,99945.69
2023-05-05T02:38:12.416Z,99942.06
2023-05-05T02:40:46.631Z,99940.69
2023-05-05T02:43:21.073Z,99933.81
2023-05-05T02:45:51.726Z,99932.00
2023-05-05T02:48:24.044Z,99880.34
2023-05-05T02:50:54.564Z,99928.59
2023-05-05T02:53:29.297Z,99923.47
2023-05-05T02:56:08.623Z,99939.81
2023-05-05T02:58:45.315Z,99942.56
2023-05-05T03:01:29.369Z,99938.75
2023-05-05T03:04:09.185Z,99937.31
2023-05-05T03:06:43.642Z,99928.56
2023-05-05T03:09:18.694Z,99953.44
2023-05-05T03:11:52.768Z,99936.00
2023-05-05T03:14:24.440Z,99931.75
2023-05-05T03:16:57.958Z,99938.09
2023-05-05T03:19:31.272Z,99940.56
2023-05-05T03:22:02.364Z,99938.31
2023-05-05T03:24:34.351Z,99907.84
2023-05-05T03:27:06.059Z,99843.00
2023-05-05T03:29:36.515Z,99932.97
2023-05-05T03:32:07.391Z,99869.91
2023-05-05T03:34:39.473Z,99926.31
2023-05-05T03:37:09.943Z,99949.53
2023-05-05T03:39:40.381Z,99935.72
2023-05-05T03:42:11.013Z,99929.44
2023-05-05T03:44:41.519Z,99936.34
2023-05-05T03:47:12.036Z,99911.25
2023-05-05T03:49:44.072Z,99932.88
2023-05-05T03:52:15.147Z,99927.63
2023-05-05T03:54:46.879Z,99925.16
2023-05-05T03:57:17.553Z,99934.50
2023-05-05T03:59:47.996Z,99934.53
2023-05-05T04:02:19.190Z,99930.78
2023-05-05T04:04:51.290Z,99931.00
2023-05-05T04:07:23.575Z,99937.00
2023-05-05T04:09:54.143Z,99908.94
2023-05-05T04:12:24.674Z,99921.38
2023-05-05T04:14:55.093Z,99933.16
2023-05-05T04:17:25.784Z,99912.47
2023-05-05T04:19:57.942Z,99930.00
2023-05-05T04:22:28.552Z,99938.19
2023-05-05T04:24:59.082Z,99944.13
2023-05-05T04:27:30.768Z,99940.44
2023-05-05T04:30:01.482Z,99924.59
2023-05-05T04:32:32.096Z,99938.13
2023-05-05T04:35:04.557Z,99927.38
2023-05-05T04:37:35.059Z,99938.59
2023-05-05T04:40:05.617Z,99940.22
2023-05-05T04:42:36.199Z,99948.22
2023-05-05T04:45:07.679Z,99950.38
2023-05-05T04:47:40.847Z,99901.03
2023-05-05T04:50:16.512Z,99941.34
2023-05-05T04:52:47.040Z,99946.06
2023-05-05T04:55:17.610Z,99942.22
2023-05-05T04:57:48.164Z,99945.66
2023-05-05T05:00:19.330Z,99865.38
2023-05-05T05:02:49.936Z,99948.81
2023-05-05T05:05:22.421Z,99950.25
2023-05-05T05:07:53.047Z,99946.06
2023-05-05T05:10:23.673Z,99955.59
2023-05-05T05:12:54.305Z,99943.97
2023-05-05T05:15:25.229Z,99953.81
2023-05-05T05:17:55.818Z,99955.59
2023-05-05T05:20:28.144Z,99949.19
2023-05-05T05:22:59.152Z,99950.53
2023-05-05T05:25:30.105Z,99960.44
2023-05-05T05:28:08.960Z,99961.50
2023-05-05T05:30:40.918Z,99970.53
2023-05-05T05:33:11.496Z,99960.13
2023-05-05T05:35:43.657Z,99967.97
2023-05-05T05:38:14.120Z,99955.50
2023-05-05T05:40:44.842Z,99933.06
2023-05-05T05:43:15.370Z,99961.84
2023-05-05T05:45:45.918Z,99960.88
2023-05-05T05:48:16.622Z,99946.09
2023-05-05T05:50:48.825Z,99956.44
2023-05-05T05:53:19.475Z,99954.50
2023-05-05T05:55:49.960Z,99944.44
2023-05-05T05:58:20.466Z,99962.66
2023-05-05T06:00:51.987Z,99879.59
2023-05-05T06:03:22.703Z,99979.06
2023-05-05T06:05:54.888Z,99959.59
2023-05-05T06:08:25.325Z,99957.84
2023-05-05T06:10:56.437Z,99972.59
2023-05-05T06:13:27.474Z,99964.81
2023-05-05T06:15:58.103Z,99965.38
2023-05-05T06:18:28.753Z,99967.94
2023-05-05T06:21:01.222Z,99960.06
2023-05-05T06:23:31.807Z,99983.31
2023-05-05T06:26:02.315Z,99981.44
2023-05-05T06:28:32.963Z,99988.84
2023-05-05T06:31:03.656Z,99975.72
2023-05-05T06:33:34.379Z,99968.31
2023-05-05T06:36:09.790Z,99982.84
2023-05-05T06:38:40.372Z,99986.34
2023-05-05T06:41:10.937Z,99989.78
2023-05-05T06:43:44.585Z,99988.34
2023-05-05T06:46:15.110Z,99981.38
2023-05-05T06:48:45.604Z,99979.56
2023-05-05T06:51:17.882Z,99986.28
2023-05-05T06:53:48.420Z,99978.09
2023-05-05T06:56:18.887Z,99988.66
2023-05-05T06:58:49.530Z,99988.09
2023-05-05T07:01:20.264Z,99989.16
2023-05-05T07:03:50.911Z,99998.03
2023-05-05T07:06:23.140Z,100000.94
2023-05-05T07:08:53.571Z,100000.34
2023-05-05T07:11:24.108Z,100005.75
2023-05-05T07:13:59.319Z,100010.38
2023-05-05T07:16:30.337Z,100013.06
2023-05-05T07:19:01.632Z,100009.75
2023-05-05T07:21:33.985Z,100014.25
2023-05-05T07:24:04.911Z,100004.84
2023-05-05T07:26:35.464Z,100013.63
2023-05-05T07:29:08.014Z,99974.22
2023-05-05T07:31:38.462Z,100005.44
2023-05-05T07:34:08.930Z,100000.56
2023-05-05T07:36:40.937Z,100007.81
2023-05-05T07:39:11.337Z,100014.81
2023-05-05T07:41:41.882Z,100000.16
2023-05-05T07:44:12.332Z,99996.94
2023-05-05T07:46:42.721Z,100037.72
2023-05-05T07:49:13.239Z,100044.19
2023-05-05T07:51:45.736Z,100040.03
2023-05-05T07:54:16.193Z,100052.53
2023-05-05T07:56:46.546Z,100064.94
2023-05-05T07:59:17.036Z,100060.72
2023-05-05T08:01:47.392Z,100064.16
2023-05-05T08:04:17.833Z,100070.50
2023-05-05T08:06:52.757Z,100070.91
2023-05-05T08:09:23.189Z,100067.72
2023-05-05T08:11:53.519Z,100083.47
2023-05-05T08:14:24.078Z,100088.88
2023-05-05T08:16:54.460Z,100078.56
2023-05-05T08:19:29.276Z,100090.03
2023-05-05T08:22:01.968Z,100094.56
2023-05-05T08:24:32.597Z,100098.19
2023-05-05T08:27:03.057Z,100107.06
2023-05-05T08:29:33.498Z,100105.47
2023-05-05T08:32:04.180Z,100095.13
2023-05-05T08:34:34.625Z,100120.22
2023-05-05T08:37:06.650Z,100115.94
2023-05-05T08:39:37.140Z,100115.13
2023-05-05T08:42:07.730Z,100112.59
2023-05-05T08:44:38.202Z,100114.44
2023-05-05T08:47:08.859Z,100128.38
2023-05-05T08:49:45.481Z,100124.94
2023-05-05T08:52:20.845Z,100129.25
2023-05-05T08:54:56.008Z,100131.88
2023-05-05T08:57:35.100Z,100133.66
2023-05-05T09:00:27.715Z,100144.03
2023-05-05T09:03:02.039Z,100125.09
2023-05-05T09:05:33.629Z,100150.19
2023-05-05T09:08:07.627Z,100153.69
2023-05-05T09:10:39.418Z,100146.81
2023-05-05T09:13:30.368Z,100157.22
2023-05-05T09:16:01.073Z,100156.38
2023-05-05T09:18:33.014Z,100166.78
2023-05-05T09:21:09.323Z,100163.31
2023-05-05T09:23:41.331Z,100163.31
2023-05-05T09:26:11.823Z,100168.56
2023-05-05T09:28:53.934Z,100172.00
2023-05-05T09:31:27.031Z,100177.16
2023-05-05T09:34:04.636Z,100177.19
2023-05-05T09:36:45.657Z,100181.44
2023-05-05T09:39:19.618Z,100174.50
2023-05-05T09:41:52.309Z,100184.00
2023-05-05T09:44:36.336Z,100190.06
2023-05-05T09:47:15.071Z,100187.47
2023-05-05T09:50:00.973Z,100184.88
2023-05-05T09:52:32.858Z,100185.72
2023-05-05T09:55:04.937Z,100190.91
2023-05-05T09:57:36.697Z,100171.84
2023-05-05T10:00:08.234Z,100190.94
2023-05-05T10:02:40.853Z,100175.31
2023-05-05T10:05:13.484Z,100197.81
2023-05-05T10:07:45.153Z,100172.72
2023-05-05T10:10:20.927Z,100218.50
2023-05-05T10:12:54.174Z,100220.22
2023-05-05T10:15:25.397Z,100227.16
2023-05-05T10:18:06.737Z,100230.59
2023-05-05T10:20:39.373Z,100230.63
2023-05-05T10:23:12.995Z,100241.03
2023-05-05T10:25:52.200Z,100247.09
2023-05-05T10:28:31.542Z,100250.53
2023-05-05T10:31:12.843Z,100251.41
2023-05-05T10:34:02.823Z,100240.09
2023-05-05T10:36:34.275Z,100241.00
2023-05-05T10:39:08.749Z,100265.19
2023-05-05T10:41:42.806Z,100225.38
2023-05-05T10:44:14.880Z,100257.41
2023-05-05T10:46:46.516Z,100269.50
2023-05-05T10:49:27.892Z,100272.09
2023-05-05T10:52:05.783Z,100272.09
2023-05-05T10:54:42.426Z,100273.81
2023-05-05T10:57:18.376Z,100263.47
2023-05-05T10:59:48.908Z,100261.69
2023-05-05T11:02:27.557Z,100261.63
2023-05-05T11:05:18.664Z,100258.19
2023-05-05T11:07:50.228Z,100226.16
2023-05-05T11:10:23.910Z,100244.41
2023-05-05T11:13:23.681Z,100262.59
2023-05-05T11:15:54.985Z,100266.88
2023-05-05T11:18:36.784Z,100225.28
2023-05-05T11:21:22.521Z,100263.44
2023-05-05T11:23:56.663Z,100226.22
2023-05-05T11:26:54.727Z,100260.03
2023-05-05T11:29:26.857Z,100254.84
2023-05-05T11:32:16.488Z,100259.97
2023-05-05T11:34:55.920Z,100258.22
2023-05-05T11:37:30.694Z,100261.69
2023-05-05T11:40:14.698Z,100262.59
2023-05-05T11:42:45.208Z,100266.03
2023-05-05T11:45:27.600Z,100253.06
2023-05-05T11:48:29.071Z,100254.84
2023-05-05T11:50:59.573Z,100258.31
2023-05-05T11:53:33.969Z,100256.56
2023-05-05T11:56:19.610Z,100263.44
2023-05-05T11:59:07.320Z,100253.09
2023-05-05T12:01:43.328Z,100216.72
2023-05-05T12:04:15.702Z,100221.88
2023-05-05T12:06:48.001Z,100239.19
2023-05-05T12:09:21.534Z,100258.19
2023-05-05T12:11:53.145Z,100261.72
2023-05-05T12:14:25.043Z,100190.72
2023-05-05T12:17:02.179Z,100260.00
2023-05-05T12:19:34.225Z,100256.56
2023-05-05T12:22:05.155Z,100211.50
2023-05-05T12:24:35.782Z,100251.38
2023-05-05T12:27:12.062Z,100250.50
2023-05-05T12:29:43.405Z,100249.66
2023-05-05T12:32:24.988Z,100243.63
2023-05-05T12:34:58.116Z,100243.63
2023-05-05T12:37:30.401Z,100242.75
2023-05-05T12:40:01.394Z,100239.28
2023-05-05T12:42:33.188Z,100241.00
2023-05-05T12:45:03.780Z,100241.00
2023-05-05T12:47:37.804Z,100228.88
2023-05-05T12:50:09.110Z,100242.72
2023-05-05T12:52:47.025Z,100249.63
2023-05-05T12:55:17.533Z,100236.59
2023-05-05T12:58:05.308Z,100253.03
2023-05-05T13:00:36.157Z,100248.72
2023-05-05T13:03:08.538Z,100241.88
2023-05-05T13:05:40.352Z,100235.81
2023-05-05T13:08:10.976Z,100181.28
2023-05-05T13:10:44.113Z,100238.38
2023-05-05T13:13:15.857Z,100182.13
2023-05-05T13:15:46.529Z,100227.13
2023-05-05T13:18:18.969Z,100238.34
2023-05-05T13:20:49.635Z,100246.13
2023-05-05T13:23:23.012Z,100249.56
2023-05-05T13:25:54.658Z,100246.06
2023-05-05T13:28:25.608Z,100212.31
2023-05-05T13:31:00.339Z,100227.03
2023-05-05T13:33:33.222Z,100214.06
2023-05-05T13:36:04.127Z,100242.59
2023-05-05T13:38:34.877Z,100241.72
2023-05-05T13:41:05.664Z,100240.88
2023-05-05T13:43:37.247Z,100242.56
2023-05-05T13:46:19.237Z,100230.44
2023-05-05T13:48:56.003Z,100240.78
2023-05-05T13:51:27.113Z,100240.75
2023-05-05T13:53:57.818Z,100232.06
2023-05-05T13:56:28.654Z,100234.63
2023-05-05T13:58:59.234Z,100229.41
2023-05-05T14:01:30.013Z,100238.88
2023-05-05T14:04:08.260Z,100240.56
2023-05-05T14:06:39.866Z,100253.53
2023-05-05T14:09:12.062Z,100243.19
2023-05-05T14:11:42.678Z,100240.59
2023-05-05T14:14:13.947Z,100240.56
2023-05-05T14:16:50.258Z,100239.72
2023-05-05T14:19:23.102Z,100237.13
2023-05-05T14:21:54.036Z,100238.03
2023-05-05T14:24:27.548Z,100230.31
2023-05-05T14:27:01.452Z,100229.38
2023-05-05T14:29:33.038Z,100241.34
2023-05-05T14:32:04.420Z,100244.69
2023-05-05T14:34:39.582Z,100243.81
2023-05-05T14:37:10.550Z,100248.94
2023-05-05T14:39:41.165Z,100238.47
2023-05-05T14:42:11.820Z,100245.28
2023-05-05T14:44:42.366Z,100240.03
2023-05-05T14:47:14.587Z,100245.06
2023-05-05T14:49:47.009Z,100239.84
2023-05-05T14:52:17.907Z,100236.34
2023-05-05T14:54:48.708Z,100238.88
2023-05-05T14:57:19.380Z,100237.97
2023-05-05T14:59:52.778Z,100243.00
2023-05-05T15:02:23.444Z,100234.34
2023-05-05T15:04:55.684Z,100241.28
2023-05-05T15:07:29.224Z,100252.41
2023-05-05T15:09:59.745Z,100249.84
2023-05-05T15:12:31.560Z,100248.16
2023-05-05T15:15:05.190Z,100249.94
2023-05-05T15:17:36.148Z,100249.91
2023-05-05T15:20:10.371Z,100243.81
2023-05-05T15:22:43.568Z,100245.63
2023-05-05T15:25:15.843Z,100238.63
2023-05-05T15:27:47.930Z,100236.84
2023-05-05T15:30:18.930Z,100223.69
2023-05-05T15:32:49.709Z,100232.25
2023-05-05T15:35:22.483Z,100228.56
2023-05-05T15:37:53.076Z,100235.97
2023-05-05T15:40:23.834Z,100231.47
2023-05-05T15:42:55.222Z,100229.81
2023-05-05T15:45:29.325Z,100235.97
2023-05-05T15:47:59.832Z,100228.31
2023-05-05T15:50:32.040Z,100221.59
2023-05-05T15:53:02.932Z,100221.75
2023-05-05T15:55:34.085Z,100216.66
2023-05-05T15:58:04.865Z,100147.31
2023-05-05T16:00:35.729Z,100180.38
2023-05-05T16:03:07.479Z,100204.75
2023-05-05T16:05:40.093Z,100138.94
2023-05-05T16:08:11.836Z,100204.91
2023-05-05T16:10:42.679Z,100203.25
2023-05-05T16:13:14.214Z,100201.63
2023-05-05T16:15:45.550Z,100198.19
2023-05-05T16:18:16.149Z,100198.25
2023-05-05T16:20:48.862Z,100190.56
2023-05-05T16:23:19.653Z,100110.97
2023-05-05T16:25:50.299Z,100175.97
2023-05-05T16:28:20.973Z,100188.06
2023-05-05T16:30:51.641Z,100172.56
2023-05-05T16:33:22.289Z,100172.53
2023-05-05T16:35:54.549Z,100171.59
2023-05-05T16:38:25.301Z,100177.56
2023-05-05T16:40:56.221Z,100160.13
2023-05-05T16:43:27.224Z,100173.84
2023-05-05T16:45:57.873Z,100168.59
2023-05-05T16:48:28.682Z,100173.53
2023-05-05T16:51:02.173Z,100175.16
2023-05-05T16:53:35.707Z,100182.03
2023-05-05T16:56:06.502Z,100181.84
2023-05-05T16:58:37.165Z,100182.63
2023-05-05T17:01:07.777Z,100174.97
2023-05-05T17:03:39.049Z,100183.59
2023-05-05T17:06:14.143Z,100162.84
2023-05-05T17:08:45.133Z,100154.91
2023-05-05T17:11:16.212Z,100147.94
2023-05-05T17:13:46.838Z,100153.78
2023-05-05T17:16:17.717Z,100161.38
2023-05-05T17:18:48.376Z,100135.31
2023-05-05T17:21:21.716Z,100152.56
2023-05-05T17:23:52.582Z,100153.41
2023-05-05T17:26:26.173Z,100165.31
2023-05-05T17:28:56.831Z,100173.75
2023-05-05T17:31:28.951Z,100164.25
2023-05-05T17:33:59.494Z,100158.31
2023-05-05T17:36:32.131Z,100158.41
2023-05-05T17:39:02.829Z,100158.75
2023-05-05T17:41:33.402Z,100167.59
2023-05-05T17:44:03.992Z,100159.16
2023-05-05T17:46:35.085Z,100151.59
2023-05-05T17:49:05.717Z,100156.81
2023-05-05T17:51:38.042Z,100149.84
2023-05-05T17:54:08.929Z,100159.16
2023-05-05T17:56:41.244Z,100155.56
2023-05-05T17:59:11.805Z,100164.09
2023-05-05T18:01:42.426Z,100160.75
2023-05-05T18:04:13.054Z,100147.09
2023-05-05T18:06:45.241Z,100144.63
2023-05-05T18:09:17.485Z,100148.69
2023-05-05T18:11:48.785Z,100152.72
2023-05-05T18:14:20.342Z,100146.69
2023-05-05T18:16:53.338Z,100150.16
2023-05-05T18:19:25.032Z,100153.59
2023-05-05T18:21:58.282Z,100144.88
2023-05-05T18:24:28.987Z,100114.59
2023-05-05T18:26:59.531Z,100150.25
2023-05-05T18:29:32.736Z,100146.78
2023-05-05T18:32:03.384Z,100148.56
2023-05-05T18:34:33.977Z,100139.94
2023-05-05T18:37:07.051Z,100152.03
2023-05-05T18:39:37.714Z,100150.44
2023-05-05T18:42:08.838Z,100144.56
2023-05-05T18:44:39.384Z,100147.13
2023-05-05T18:47:10.024Z,100153.78
2023-05-05T18:49:40.636Z,100151.75
2023-05-05T18:52:12.804Z,100153.56
2023-05-05T18:54:43.399Z,100149.25
2023-05-05T18:57:13.983Z,100143.94
2023-05-05T18:59:44.591Z,100162.03
2023-05-05T19:02:14.980Z,100161.19
2023-05-05T19:04:45.429Z,100155.16
2023-05-05T19:07:27.901Z,100163.72
2023-05-05T19:10:04.673Z,100156.75
2023-05-05T19:12:35.246Z,100167.00
2023-05-05T19:15:05.654Z,100159.75
2023-05-05T19:17:36.310Z,100176.03
2023-05-05T19:20:07.229Z,100174.22
2023-05-05T19:22:39.336Z,100177.44
2023-05-05T19:25:10.476Z,100172.91
2023-05-05T19:27:41.169Z,100166.78
2023-05-05T19:30:12.795Z,100117.16
2023-05-05T19:32:43.346Z,100184.84
2023-05-05T19:35:13.839Z,100168.44
2023-05-05T19:37:45.885Z,100172.50
2023-05-05T19:40:16.610Z,100160.63
2023-05-05T19:42:47.074Z,100157.13
2023-05-05T19:45:17.640Z,100162.19
2023-05-05T19:47:48.346Z,100167.34
2023-05-05T19:50:18.790Z,100169.97
2023-05-05T19:52:50.855Z,100174.53
2023-05-05T19:55:22.564Z,100172.88
2023-05-05T19:57:52.884Z,100173.16
2023-05-05T20:00:23.567Z,100175.09
2023-05-05T20:02:54.014Z,100166.75
2023-05-05T20:05:24.639Z,100164.28
2023-05-05T20:07:56.635Z,100107.88
2023-05-05T20:10:27.584Z,100156.63
2023-05-05T20:12:58.158Z,100160.44
2023-05-05T20:15:28.887Z,100146.16
2023-05-05T20:17:59.663Z,100149.03
2023-05-05T20:20:30.082Z,100149.34
2023-05-05T20:23:02.230Z,100159.00
2023-05-05T20:25:33.854Z,100154.81
2023-05-05T20:28:04.183Z,100151.44
2023-05-05T20:30:34.576Z,100151.19
2023-05-05T20:33:05.313Z,100173.50
2023-05-05T20:35:36.070Z,100175.22
2023-05-05T20:38:08.220Z,100179.63
2023-05-05T20:40:39.007Z,100181.47
2023-05-05T20:43:09.569Z,100179.72
2023-05-05T20:45:40.124Z,100185.81
2023-05-05T20:48:13.602Z,100177.28
2023-05-05T20:50:44.521Z,100199.75
2023-05-05T20:53:16.963Z,100179.19
2023-05-05T20:55:47.970Z,100177.56
2023-05-05T20:58:18.485Z,100175.94
2023-05-05T21:00:49.138Z,100181.19
2023-05-05T21:03:19.734Z,100170.97
2023-05-05T21:05:50.737Z,100170.19
2023-05-05T21:08:22.827Z,100176.31
2023-05-05T21:10:53.328Z,100179.84
2023-05-05T21:13:23.939Z,100171.09
2023-05-05T21:15:54.453Z,100173.06
2023-05-05T21:18:26.525Z,100170.66
2023-05-05T21:20:57.037Z,100173.13
2023-05-05T21:23:29.228Z,100114.13
2023-05-05T21:25:59.692Z,100166.31
2023-05-05T21:28:30.059Z,100167.25
2023-05-05T21:31:20.665Z,100117.78
2023-05-05T21:33:51.312Z,100172.19
2023-05-05T21:36:22.110Z,100174.88
2023-05-05T21:38:57.763Z,100171.50
2023-05-05T21:41:29.605Z,100155.94
2023-05-05T21:44:00.598Z,100160.34
2023-05-05T21:46:31.236Z,100162.91
2023-05-05T21:49:01.768Z,100167.34
2023-05-05T21:51:32.300Z,100164.75
2023-05-05T21:54:07.461Z,100174.22
2023-05-05T21:56:38.797Z,100172.50
2023-05-05T21:59:09.530Z,100170.00
2023-05-05T22:01:40.292Z,100164.03
2023-05-05T22:04:11.294Z,100169.31
2023-05-05T22:06:41.857Z,100169.31
2023-05-05T22:09:13.983Z,100175.38
2023-05-05T22:11:44.524Z,100178.91
2023-05-05T22:14:15.116Z,100173.72
2023-05-05T22:16:46.121Z,100163.34
2023-05-05T22:19:16.878Z,100170.28
2023-05-05T22:21:47.338Z,100167.63
2023-05-05T22:24:19.407Z,100145.81
2023-05-05T22:26:49.951Z,100163.13
2023-05-05T22:29:23.128Z,100166.56
2023-05-05T22:31:53.822Z,100162.31
2023-05-05T22:34:24.733Z,100163.22
2023-05-05T22:36:55.260Z,100163.25
2023-05-05T22:39:27.872Z,100152.84
2023-05-05T22:41:58.362Z,100158.84
2023-05-05T22:44:28.953Z,100173.53
2023-05-05T22:46:59.656Z,100144.09
2023-05-05T22:49:30.583Z,100129.50
2023-05-05T22:52:01.215Z,100155.41
2023-05-05T22:54:33.678Z,100149.22
2023-05-05T22:57:04.538Z,100138.44
2023-05-05T22:59:35.108Z,100133.09
2023-05-05T23:02:05.713Z,100134.09
2023-05-05T23:04:36.256Z,100129.84
2023-05-05T23:07:06.816Z,100128.09
2023-05-05T23:09:38.847Z,100117.25
2023-05-05T23:12:09.673Z,100130.00
2023-05-05T23:14:40.126Z,100114.91
2023-05-05T23:17:10.743Z,100129.13
2023-05-05T23:19:41.183Z,100123.66
2023-05-05T23:22:11.597Z,100125.84
2023-05-05T23:24:43.768Z,100111.06
2023-05-05T23:27:15.239Z,100107.22
2023-05-05T23:29:46.202Z,100093.63
2023-05-05T23:32:17.995Z,100090.53
2023-05-05T23:34:48.930Z,100089.09
2023-05-05T23:37:19.474Z,100088.59
2023-05-05T23:39:51.618Z,100088.22
2023-05-05T23:42:22.254Z,100085.13
2023-05-05T23:44:53.476Z,100100.19
2023-05-05T23:47:24.081Z,100097.56
2023-05-05T23:49:54.544Z,100093.81
2023-05-05T23:52:26.280Z,100096.03
2023-05-05T23:54:58.613Z,100103.56
2023-05-05T23:57:29.795Z,100101.81
